»·PEaware :: SWA505 KBUR-KLAS

SWA505 :: KBUR-KLAS

FLIGHT INFORMATION

Flight Status: Arrived
Operator:
Southwest Airlines
More flights by this operator :: More flights under this callsign
Pilot: Michael D. (17574)
Aircraft: BOEING 737-800
(B738)
More flights by this aircraft type
Origin: KBUR Bob Hope-Burbank
United States
Destination: KLAS McCarran Intl
United States
More flights between these airports :: More routes between these airports
Route: +VNY3 DAG MISEN KEPEC6
File this flight plan on PilotEdge
Remarks: I-5 Checkride
Altitude:
(Current/Filed)
27,000ft
Speed:
(Current/Filed)
471kts
Departed: 13-Jan-18 04:26 PM
Arrived: 13-Jan-18 05:58 PM
Distance/Time
Traveled:
194nm/1:32
Distance/Time
To Go:
Arrived

Flight Plot

Page will automatically refresh every two minutes.

Flight plan parsing failed; only flown route is shown


Map Options




Map Legend


Flown Route
Filed Route
Departure Airport
Arrival Airport
Navaid (VOR, NDB)
Fix

Horizontal Profiles

Position Reports

Time Latitude Longitude Heading Altitude Ground
Speed
13-Jan-18 15:58 34.196763 -118.350110 0 742ft 0kts
13-Jan-18 15:59 34.196763 -118.350110 179 742ft 0kts
13-Jan-18 16:00 34.196763 -118.350110 179 742ft 0kts
13-Jan-18 16:01 34.196763 -118.350110 179 742ft 0kts
13-Jan-18 16:02 34.196763 -118.350110 179 742ft 0kts
13-Jan-18 16:03 34.196763 -118.350110 179 742ft 0kts
13-Jan-18 16:04 34.196763 -118.350110 179 742ft 0kts
13-Jan-18 16:05 34.196763 -118.350110 179 742ft 0kts
13-Jan-18 16:06 34.196763 -118.350110 179 742ft 0kts
13-Jan-18 16:07 34.196763 -118.350110 179 742ft 0kts
13-Jan-18 16:08 34.196763 -118.350110 179 742ft 0kts
13-Jan-18 16:09 34.196763 -118.350110 179 742ft 0kts
13-Jan-18 16:10 34.196763 -118.350110 179 742ft 0kts
13-Jan-18 16:11 34.196763 -118.350110 179 742ft 0kts
13-Jan-18 16:12 34.196763 -118.350110 179 742ft 0kts
13-Jan-18 16:13 34.196763 -118.350110 179 742ft 0kts
13-Jan-18 16:14 34.196763 -118.350110 179 742ft 0kts
13-Jan-18 16:15 34.196763 -118.350110 179 742ft 0kts
13-Jan-18 16:16 34.196763 -118.350110 179 742ft 0kts
13-Jan-18 16:17 34.196763 -118.350110 179 742ft 0kts
13-Jan-18 16:18 34.196763 -118.350110 179 742ft 0kts
13-Jan-18 16:19 34.196926 -118.350105 198 742ft 2kts
13-Jan-18 16:20 34.197148 -118.349669 271 742ft 0kts
13-Jan-18 16:21 34.197148 -118.349669 271 742ft 0kts
13-Jan-18 16:22 34.197148 -118.349669 271 742ft 0kts
13-Jan-18 16:23 34.197148 -118.349669 271 742ft 0kts
13-Jan-18 16:24 34.197148 -118.349669 271 742ft 0kts
13-Jan-18 16:25 34.197850 -118.350237 351 742ft 19kts
13-Jan-18 16:26 34.199333 -118.355513 346 741ft 18kts
13-Jan-18 16:27 34.204491 -118.356943 346 742ft 19kts
13-Jan-18 16:28 34.210031 -118.358453 347 742ft 21kts
13-Jan-18 16:29 34.211650 -118.359038 315 742ft 0kts
13-Jan-18 16:30 34.211650 -118.359038 315 742ft 0kts
13-Jan-18 16:31 34.211650 -118.359038 315 742ft 0kts
13-Jan-18 16:32 34.207637 -118.359175 167 742ft 96kts
13-Jan-18 16:33 34.154513 -118.343879 186 2114ft 268kts
13-Jan-18 16:34 34.134252 -118.411107 315 4017ft 267kts
13-Jan-18 16:39 34.196763 -118.350110 179 742ft 0kts
13-Jan-18 16:40 34.196763 -118.350110 179 742ft 0kts
13-Jan-18 16:41 34.196763 -118.350110 179 742ft 0kts
13-Jan-18 16:42 34.196763 -118.350110 179 742ft 0kts
13-Jan-18 16:43 34.196763 -118.350110 179 742ft 0kts
13-Jan-18 16:44 34.196763 -118.350110 179 742ft 0kts
13-Jan-18 16:45 34.196763 -118.350110 179 742ft 0kts
13-Jan-18 16:46 34.196763 -118.350110 179 742ft 0kts
13-Jan-18 16:47 34.196763 -118.350110 179 742ft 0kts
13-Jan-18 16:48 34.196763 -118.350110 179 742ft 0kts
13-Jan-18 16:49 34.196763 -118.350110 179 742ft 0kts
13-Jan-18 16:50 34.196763 -118.350110 179 742ft 0kts
13-Jan-18 16:51 34.196763 -118.350110 179 742ft 0kts
13-Jan-18 16:52 34.196763 -118.350110 179 742ft 0kts
13-Jan-18 16:53 34.196763 -118.350110 179 742ft 0kts
13-Jan-18 16:54 34.196763 -118.350110 179 742ft 0kts
13-Jan-18 16:55 34.196989 -118.350067 209 742ft 2kts
13-Jan-18 16:56 34.197159 -118.349659 271 742ft 0kts
13-Jan-18 16:57 34.197159 -118.349659 271 742ft 0kts
13-Jan-18 16:58 34.197159 -118.349659 271 742ft 0kts
13-Jan-18 16:59 34.197159 -118.349659 271 742ft 0kts
13-Jan-18 17:00 34.197159 -118.349659 271 742ft 0kts
13-Jan-18 17:01 34.197159 -118.349659 271 742ft 0kts
13-Jan-18 17:02 34.197159 -118.349659 271 742ft 0kts
13-Jan-18 17:03 34.197159 -118.349659 271 742ft 0kts
13-Jan-18 17:04 34.197154 -118.349809 264 742ft 5kts
13-Jan-18 17:05 34.197251 -118.354483 296 742ft 15kts
13-Jan-18 17:06 34.201787 -118.356184 346 741ft 20kts
13-Jan-18 17:07 34.208111 -118.357929 347 741ft 26kts
13-Jan-18 17:08 34.211612 -118.359012 320 742ft 0kts
13-Jan-18 17:09 34.211612 -118.359012 320 742ft 0kts
13-Jan-18 17:10 34.210918 -118.360077 166 742ft 40kts
13-Jan-18 17:11 34.169280 -118.354694 204 2250ft 193kts
13-Jan-18 17:12 34.124750 -118.405199 237 3572ft 246kts
13-Jan-18 17:13 34.140969 -118.476029 333 5631ft 261kts
13-Jan-18 17:14 34.214567 -118.493963 351 8536ft 279kts
13-Jan-18 17:15 34.294364 -118.506757 352 10914ft 313kts
13-Jan-18 17:16 34.375089 -118.468899 34 12978ft 327kts
13-Jan-18 17:17 34.443321 -118.398054 65 13053ft 331kts
13-Jan-18 17:18 34.474199 -118.313532 52 13081ft 329kts
13-Jan-18 17:19 34.540030 -118.209992 51 15286ft 340kts
13-Jan-18 17:20 34.592155 -118.126735 50 18000ft 354kts
13-Jan-18 17:21 34.636717 -118.020460 80 20738ft 378kts
13-Jan-18 17:22 34.648028 -117.913365 80 22876ft 393kts
13-Jan-18 17:23 34.665445 -117.756663 73 25618ft 411kts
13-Jan-18 17:24 34.699842 -117.623781 69 27309ft 426kts
13-Jan-18 17:25 34.736850 -117.479563 70 27332ft 469kts
13-Jan-18 17:26 34.769679 -117.350344 70 27321ft 485kts
13-Jan-18 17:27 34.807353 -117.201285 70 27312ft 484kts
13-Jan-18 17:28 34.846617 -117.044993 70 27303ft 481kts
13-Jan-18 17:29 34.885084 -116.890893 71 27300ft 476kts
13-Jan-18 17:30 34.923415 -116.736463 71 27301ft 476kts
13-Jan-18 17:31 34.962059 -116.588890 59 26432ft 427kts
13-Jan-18 17:32 35.035243 -116.487667 42 25385ft 388kts
13-Jan-18 17:33 35.106749 -116.398364 42 24319ft 387kts
13-Jan-18 17:34 35.177462 -116.309890 43 24321ft 386kts
13-Jan-18 17:35 35.252407 -116.215876 43 23752ft 392kts
13-Jan-18 17:36 35.327113 -116.121859 43 21258ft 379kts
13-Jan-18 17:37 35.397339 -116.033241 43 18730ft 350kts
13-Jan-18 17:38 35.463602 -115.949437 43 17051ft 336kts
13-Jan-18 17:39 35.528674 -115.866934 43 15810ft 334kts
13-Jan-18 17:40 35.592274 -115.786083 43 14599ft 327kts
13-Jan-18 17:41 35.651763 -115.710257 43 13462ft 294kts
13-Jan-18 17:42 35.707131 -115.639584 43 13027ft 294kts
13-Jan-18 17:43 35.769452 -115.577105 10 13038ft 291kts
13-Jan-18 17:44 35.849675 -115.570556 2 13026ft 290kts
13-Jan-18 17:45 35.930123 -115.565885 2 13016ft 290kts
13-Jan-18 17:46 35.986866 -115.506142 62 13023ft 298kts
13-Jan-18 17:47 36.017306 -115.417542 65 12895ft 277kts
13-Jan-18 17:48 36.028178 -115.330979 93 10585ft 284kts
13-Jan-18 17:49 36.021286 -115.239543 93 9390ft 262kts
13-Jan-18 17:50 36.015359 -115.156020 92 8589ft 222kts
13-Jan-18 17:51 36.010747 -115.088181 91 8049ft 188kts
13-Jan-18 17:52 36.006238 -115.012321 91 8011ft 238kts
13-Jan-18 17:53 36.001371 -114.931136 91 7937ft 236kts
13-Jan-18 17:54 35.996468 -114.850098 92 7323ft 236kts
13-Jan-18 17:55 35.992785 -114.770590 73 6291ft 227kts
13-Jan-18 17:56 36.040569 -114.743054 333 5528ft 222kts
13-Jan-18 17:57 36.068782 -114.807568 291 4959ft 193kts
13-Jan-18 17:58 36.073428 -114.864488 272 5017ft 168kts
13-Jan-18 17:59 36.073576 -114.922368 272 4451ft 170kts
13-Jan-18 18:00 36.073655 -114.978219 272 4073ft 163kts
13-Jan-18 18:01 36.073645 -115.034640 271 3515ft 165kts
13-Jan-18 18:02 36.073664 -115.089796 271 2668ft 163kts
13-Jan-18 18:03 36.073662 -115.141134 270 2088ft 58kts
13-Jan-18 18:04 36.075150 -115.146415 338 2103ft 0kts
13-Jan-18 18:05 36.078337 -115.146972 51 2101ft 10kts
13-Jan-18 18:06 36.080499 -115.145296 295 2090ft 9kts
13-Jan-18 18:07 36.080543 -115.145636 274 2091ft 0kts
13-Jan-18 18:08 36.080543 -115.145636 274 2091ft 0kts
13-Jan-18 18:09 36.080543 -115.145636 274 2091ft 0kts
13-Jan-18 18:10 36.080543 -115.145636 274 2091ft 0kts
13-Jan-18 18:11 36.080543 -115.145636 274 2091ft 0kts
13-Jan-18 18:12 36.080543 -115.145636 274 2091ft 0kts
13-Jan-18 18:13 36.080543 -115.145636 274 2091ft 0kts
13-Jan-18 18:14 36.080543 -115.145636 274 2091ft 0kts

Navigation Log

Ident Type
Flight plan parsing failed, navigation log unavailable